sensor_id;sensor_type;location;lat;lon;timestamp;temperature;humidity
3818;DHT22;1924;48.078;11.516;2024-01-15T00:01:42;-0.10;99.90
3818;DHT22;1924;48.078;11.516;2024-01-15T00:04:09;-0.10;99.90
3818;DHT22;1924;48.078;11.516;2024-01-15T00:06:37;-0.10;99.90
3818;DHT22;1924;48.078;11.516;2024-01-15T00:09:04;-0.10;99.90
3818;DHT22;1924;48.078;11.516;2024-01-15T00:11:33;0.00;99.90
3818;DHT22;1924;48.078;11.516;2024-01-15T00:14:00;0.10;99.90
3818;DHT22;1924;48.078;11.516;2024-01-15T00:16:27;0.10;99.90
3818;DHT22;1924;48.078;11.516;2024-01-15T00:18:54;0.10;99.90
3818;DHT22;1924;48.078;11.516;2024-01-15T00:21:21;0.10;99.90
3818;DHT22;1924;48.078;11.516;2024-01-15T00:23:50;0.10;99.90
3818;DHT22;1924;48.078;11.516;2024-01-15T00:26:16;0.20;99.90
3818;DHT22;1924;48.078;11.516;2024-01-15T00:28:43;0.20;99.90
3818;DHT22;1924;48.078;11.516;2024-01-15T00:31:10;0.10;99.90
3818;DHT22;1924;48.078;11.516;2024-01-15T00:33:37;0.10;99.90
3818;DHT22;1924;48.078;11.516;2024-01-15T00:36:04;0.10;99.90
3818;DHT22;1924;48.078;11.516;2024-01-15T00:38:30;0.10;99.90
3818;DHT22;1924;48.078;11.516;2024-01-15T00:40:58;0.10;99.90
3818;DHT22;1924;48.078;11.516;2024-01-15T00:43:25;0.10;99.90
3818;DHT22;1924;48.078;11.516;2024-01-15T00:45:52;0.10;99.90
3818;DHT22;1924;48.078;11.516;2024-01-15T00:48:19;0.00;99.90
3818;DHT22;1924;48.078;11.516;2024-01-15T00:50:45;0.10;99.90
3818;DHT22;1924;48.078;11.516;2024-01-15T00:53:12;0.10;99.90
3818;DHT22;1924;48.078;11.516;2024-01-15T00:55:39;0.00;99.90
3818;DHT22;1924;48.078;11.516;2024-01-15T00:58:07;-0.10;99.90
3818;DHT22;1924;48.078;11.516;2024-01-15T01:00:33;-0.10;99.90
3818;DHT22;1924;48.078;11.516;2024-01-15T01:03:00;-0.10;99.90
3818;DHT22;1924;48.078;11.516;2024-01-15T01:05:27;-0.10;99.90
3818;DHT22;1924;48.078;11.516;2024-01-15T01:07:53;0.00;99.90
3818;DHT22;1924;48.078;11.516;2024-01-15T01:10:20;0.00;99.90
3818;DHT22;1924;48.078;11.516;2024-01-15T01:12:47;0.00;99.90
3818;DHT22;1924;48.078;11.516;2024-01-15T01:15:15;0.10;99.90
3818;DHT22;1924;48.078;11.516;2024-01-15T01:17:42;0.00;99.90
3818;DHT22;1924;48.078;11.516;2024-01-15T01:20:09;-0.10;99.90
3818;DHT22;1924;48.078;11.516;2024-01-15T01:22:36;-0.10;99.90
3818;DHT22;1924;48.078;11.516;2024-01-15T05:00:25;-0.70;99.90
3818;DHT22;1924;48.078;11.516;2024-01-15T05:02:51;-0.70;99.90
3818;DHT22;1924;48.078;11.516;2024-01-15T05:05:18;-0.70;99.90
3818;DHT22;1924;48.078;11.516;2024-01-15T05:07:45;-0.70;99.90
3818;DHT22;1924;48.078;11.516;2024-01-15T05:10:11;-0.70;99.90
3818;DHT22;1924;48.078;11.516;2024-01-15T05:12:38;-0.70;99.90
3818;DHT22;1924;48.078;11.516;2024-01-15T05:15:05;-0.70;99.90
3818;DHT22;1924;48.078;11.516;2024-01-15T05:17:33;-0.80;99.90
3818;DHT22;1924;48.078;11.516;2024-01-15T05:20:00;-0.80;99.90
3818;DHT22;1924;48.078;11.516;2024-01-15T05:22:28;-0.80;99.90
3818;DHT22;1924;48.078;11.516;2024-01-15T05:24:55;-0.80;99.90
3818;DHT22;1924;48.078;11.516;2024-01-15T05:27:22;-0.80;99.90
3818;DHT22;1924;48.078;11.516;2024-01-15T05:29:48;-0.80;99.90
3818;DHT22;1924;48.078;11.516;2024-01-15T05:32:15;-0.80;99.90
3818;DHT22;1924;48.078;11.516;2024-01-15T05:34:43;-0.80;99.90
3818;DHT22;1924;48.078;11.516;2024-01-15T05:37:10;-0.80;99.90
3818;DHT22;1924;48.078;11.516;2024-01-15T05:39:36;-0.80;99.90
3818;DHT22;1924;48.078;11.516;2024-01-15T05:42:04;-0.80;99.90
3818;DHT22;1924;48.078;11.516;2024-01-15T05:44:31;-0.80;99.90
3818;DHT22;1924;48.078;11.516;2024-01-15T05:46:57;-0.70;99.90
3818;DHT22;1924;48.078;11.516;2024-01-15T05:49:24;-0.70;99.90
3818;DHT22;1924;48.078;11.516;2024-01-15T05:51:52;-0.70;99.90
3818;DHT22;1924;48.078;11.516;2024-01-15T05:54:19;-0.70;99.90
3818;DHT22;1924;48.078;11.516;2024-01-15T05:56:46;-0.70;99.90
3818;DHT22;1924;48.078;11.516;2024-01-15T05:59:13;-0.70;99.90
3818;DHT22;1924;48.078;11.516;2024-01-15T06:01:39;-0.70;99.90
3818;DHT22;1924;48.078;11.516;2024-01-15T06:04:06;-0.70;99.90
3818;DHT22;1924;48.078;11.516;2024-01-15T06:06:33;-0.70;99.90
3818;DHT22;1924;48.078;11.516;2024-01-15T06:09:01;-0.70;99.90
3818;DHT22;1924;48.078;11.516;2024-01-15T06:11:30;-0.70;99.90
3818;DHT22;1924;48.078;11.516;2024-01-15T06:13:57;-0.70;99.90
3818;DHT22;1924;48.078;11.516;2024-01-15T06:16:24;-0.70;99.90
3818;DHT22;1924;48.078;11.516;2024-01-15T06:18:51;-0.80;99.90
3818;DHT22;1924;48.078;11.516;2024-01-15T06:21:18;-0.80;99.90
3818;DHT22;1924;48.078;11.516;2024-01-15T06:23:44;-0.80;99.90
3818;DHT22;1924;48.078;11.516;2024-01-15T06:26:14;-0.70;99.90
3818;DHT22;1924;48.078;11.516;2024-01-15T06:28:41;-0.70;99.90
3818;DHT22;1924;48.078;11.516;2024-01-15T06:31:08;-0.80;99.90
3818;DHT22;1924;48.078;11.516;2024-01-15T06:33:35;-0.80;99.90
3818;DHT22;1924;48.078;11.516;2024-01-15T06:38:37;-0.80;99.90
3818;DHT22;1924;48.078;11.516;2024-01-15T06:41:09;-0.80;99.90
3818;DHT22;1924;48.078;11.516;2024-01-15T06:43:37;-0.80;99.90
3818;DHT22;1924;48.078;11.516;2024-01-15T06:46:04;-0.70;99.90
3818;DHT22;1924;48.078;11.516;2024-01-15T06:51:53;-0.70;99.90
3818;DHT22;1924;48.078;11.516;2024-01-15T06:54:20;-0.80;99.90
3818;DHT22;1924;48.078;11.516;2024-01-15T06:59:22;-0.80;99.90
3818;DHT22;1924;48.078;11.516;2024-01-15T07:01:48;-0.80;99.90
3818;DHT22;1924;48.078;11.516;2024-01-15T07:04:15;-0.80;99.90
3818;DHT22;1924;48.078;11.516;2024-01-15T07:06:42;-0.70;99.90
3818;DHT22;1924;48.078;11.516;2024-01-15T07:11:47;-0.70;99.90
3818;DHT22;1924;48.078;11.516;2024-01-15T07:14:14;-0.70;99.90
3818;DHT22;1924;48.078;11.516;2024-01-15T07:16:42;-0.70;99.90
3818;DHT22;1924;48.078;11.516;2024-01-15T07:19:09;-0.70;99.90
3818;DHT22;1924;48.078;11.516;2024-01-15T07:21:35;-0.70;99.90
3818;DHT22;1924;48.078;11.516;2024-01-15T07:24:05;-0.70;99.90
3818;DHT22;1924;48.078;11.516;2024-01-15T07:26:32;-0.70;99.90
3818;DHT22;1924;48.078;11.516;2024-01-15T07:28:58;-0.70;99.90
3818;DHT22;1924;48.078;11.516;2024-01-15T07:31:25;-0.70;99.90
3818;DHT22;1924;48.078;11.516;2024-01-15T07:33:53;-0.70;99.90
3818;DHT22;1924;48.078;11.516;2024-01-15T07:36:20;-0.70;99.90
3818;DHT22;1924;48.078;11.516;2024-01-15T07:38:46;-0.70;99.90
3818;DHT22;1924;48.078;11.516;2024-01-15T07:41:13;-0.60;99.90
3818;DHT22;1924;48.078;11.516;2024-01-15T07:43:40;-0.50;99.90
3818;DHT22;1924;48.078;11.516;2024-01-15T07:46:07;-0.50;99.90
3818;DHT22;1924;48.078;11.516;2024-01-15T07:48:34;-0.50;99.90
3818;DHT22;1924;48.078;11.516;2024-01-15T07:51:02;-0.60;99.90
3818;DHT22;1924;48.078;11.516;2024-01-15T07:53:29;-0.50;99.90
3818;DHT22;1924;48.078;11.516;2024-01-15T07:55:56;-0.50;99.90
3818;DHT22;1924;48.078;11.516;2024-01-15T07:58:23;-0.40;99.90
3818;DHT22;1924;48.078;11.516;2024-01-15T08:00:50;-0.40;99.90
3818;DHT22;1924;48.078;11.516;2024-01-15T08:03:17;-0.40;99.90
3818;DHT22;1924;48.078;11.516;2024-01-15T08:05:44;-0.40;99.90
3818;DHT22;1924;48.078;11.516;2024-01-15T08:08:12;-0.40;99.90
3818;DHT22;1924;48.078;11.516;2024-01-15T08:10:38;-0.50;99.90
3818;DHT22;1924;48.078;11.516;2024-01-15T08:13:05;-0.50;99.90
3818;DHT22;1924;48.078;11.516;2024-01-15T08:15:33;-0.40;99.90
3818;DHT22;1924;48.078;11.516;2024-01-15T08:18:00;-0.30;99.90
3818;DHT22;1924;48.078;11.516;2024-01-15T08:20:27;-0.30;99.90
3818;DHT22;1924;48.078;11.516;2024-01-15T08:22:54;-0.40;99.90
3818;DHT22;1924;48.078;11.516;2024-01-15T08:25:22;-0.30;99.90
3818;DHT22;1924;48.078;11.516;2024-01-15T08:27:50;-0.30;99.90
3818;DHT22;1924;48.078;11.516;2024-01-15T08:30:17;-0.20;99.90
3818;DHT22;1924;48.078;11.516;2024-01-15T08:32:44;-0.20;99.90
3818;DHT22;1924;48.078;11.516;2024-01-15T08:35:11;-0.20;99.90
3818;DHT22;1924;48.078;11.516;2024-01-15T08:37:38;-0.30;99.90
3818;DHT22;1924;48.078;11.516;2024-01-15T08:40:05;-0.40;99.90
3818;DHT22;1924;48.078;11.516;2024-01-15T08:42:33;-0.40;99.90
3818;DHT22;1924;48.078;11.516;2024-01-15T08:45:00;-0.40;99.90
3818;DHT22;1924;48.078;11.516;2024-01-15T08:47:27;-0.30;99.90
3818;DHT22;1924;48.078;11.516;2024-01-15T08:49:54;-0.20;99.90
3818;DHT22;1924;48.078;11.516;2024-01-15T08:52:20;-0.20;99.90
3818;DHT22;1924;48.078;11.516;2024-01-15T08:54:47;-0.10;99.90
3818;DHT22;1924;48.078;11.516;2024-01-15T08:57:14;-0.10;99.90
3818;DHT22;1924;48.078;11.516;2024-01-15T08:59:42;0.00;99.90
3818;DHT22;1924;48.078;11.516;2024-01-15T09:02:10;-0.10;99.90
3818;DHT22;1924;48.078;11.516;2024-01-15T09:04:37;-0.10;99.90
3818;DHT22;1924;48.078;11.516;2024-01-15T09:07:04;-0.10;99.90
3818;DHT22;1924;48.078;11.516;2024-01-15T09:09:31;-0.10;99.90
3818;DHT22;1924;48.078;11.516;2024-01-15T09:11:57;0.00;99.90
3818;DHT22;1924;48.078;11.516;2024-01-15T09:14:24;0.00;99.90
3818;DHT22;1924;48.078;11.516;2024-01-15T09:16:53;0.00;99.90
3818;DHT22;1924;48.078;11.516;2024-01-15T09:19:21;0.00;99.90
3818;DHT22;1924;48.078;11.516;2024-01-15T09:21:48;0.00;99.90
3818;DHT22;1924;48.078;11.516;2024-01-15T09:24:15;0.10;99.90
3818;DHT22;1924;48.078;11.516;2024-01-15T09:26:41;0.10;99.90
3818;DHT22;1924;48.078;11.516;2024-01-15T09:29:08;0.10;99.90
3818;DHT22;1924;48.078;11.516;2024-01-15T09:31:35;0.00;99.90
3818;DHT22;1924;48.078;11.516;2024-01-15T09:34:03;0.10;99.90
3818;DHT22;1924;48.078;11.516;2024-01-15T09:36:30;0.20;99.90
3818;DHT22;1924;48.078;11.516;2024-01-15T09:38:56;0.20;99.90
3818;DHT22;1924;48.078;11.516;2024-01-15T09:41:23;0.30;99.90
3818;DHT22;1924;48.078;11.516;2024-01-15T09:43:51;0.30;99.90
3818;DHT22;1924;48.078;11.516;2024-01-15T09:46:18;0.30;99.90
3818;DHT22;1924;48.078;11.516;2024-01-15T09:48:45;0.30;99.90
3818;DHT22;1924;48.078;11.516;2024-01-15T09:51:13;0.30;99.90
3818;DHT22;1924;48.078;11.516;2024-01-15T09:53:41;0.40;99.90
3818;DHT22;1924;48.078;11.516;2024-01-15T09:58:44;0.50;99.90
3818;DHT22;1924;48.078;11.516;2024-01-15T10:01:11;0.40;99.90
3818;DHT22;1924;48.078;11.516;2024-01-15T10:03:41;0.50;99.90
3818;DHT22;1924;48.078;11.516;2024-01-15T10:08:47;0.70;99.90
3818;DHT22;1924;48.078;11.516;2024-01-15T10:11:14;0.70;99.90
3818;DHT22;1924;48.078;11.516;2024-01-15T10:13:43;0.70;99.90
3818;DHT22;1924;48.078;11.516;2024-01-15T10:24:00;0.90;99.90
3818;DHT22;1924;48.078;11.516;2024-01-15T10:31:28;0.90;99.90
3818;DHT22;1924;48.078;11.516;2024-01-15T10:59:43;1.20;99.90
3818;DHT22;1924;48.078;11.516;2024-01-15T11:21:25;1.30;99.90
3818;DHT22;1924;48.078;11.516;2024-01-15T11:23:54;1.30;99.90
3818;DHT22;1924;48.078;11.516;2024-01-15T12:41:54;1.20;99.90
3818;DHT22;1924;48.078;11.516;2024-01-15T13:15:36;1.30;99.90
3818;DHT22;1924;48.078;11.516;2024-01-15T13:31:06;2.00;99.90
3818;DHT22;1924;48.078;11.516;2024-01-15T13:33:34;1.90;99.90
3818;DHT22;1924;48.078;11.516;2024-01-15T13:36:00;1.90;99.90
3818;DHT22;1924;48.078;11.516;2024-01-15T13:38:28;1.80;99.90
3818;DHT22;1924;48.078;11.516;2024-01-15T13:46:25;1.70;99.90
3818;DHT22;1924;48.078;11.516;2024-01-15T13:56:42;1.70;99.90
3818;DHT22;1924;48.078;11.516;2024-01-15T14:04:31;1.60;99.90
3818;DHT22;1924;48.078;11.516;2024-01-15T14:49:10;1.20;99.90
3818;DHT22;1924;48.078;11.516;2024-01-15T14:54:14;1.10;99.90
3818;DHT22;1924;48.078;11.516;2024-01-15T14:56:41;1.00;99.90
3818;DHT22;1924;48.078;11.516;2024-01-15T15:19:50;1.00;99.90
3818;DHT22;1924;48.078;11.516;2024-01-15T16:13:55;0.60;99.90
3818;DHT22;1924;48.078;11.516;2024-01-15T16:26:45;0.80;99.90
3818;DHT22;1924;48.078;11.516;2024-01-15T16:29:13;0.70;99.90
3818;DHT22;1924;48.078;11.516;2024-01-15T16:45:06;0.60;99.90
3818;DHT22;1924;48.078;11.516;2024-01-15T16:53:41;0.60;99.90
3818;DHT22;1924;48.078;11.516;2024-01-15T17:03:55;0.70;99.90
3818;DHT22;1924;48.078;11.516;2024-01-15T17:11:41;0.40;99.90
3818;DHT22;1924;48.078;11.516;2024-01-15T17:14:08;0.40;99.90
3818;DHT22;1924;48.078;11.516;2024-01-15T17:16:35;0.40;99.90
3818;DHT22;1924;48.078;11.516;2024-01-15T17:21:44;0.30;99.90
3818;DHT22;1924;48.078;11.516;2024-01-15T17:50:07;0.40;99.90
3818;DHT22;1924;48.078;11.516;2024-01-15T17:57:35;0.20;99.90
3818;DHT22;1924;48.078;11.516;2024-01-15T18:00:04;0.30;99.90
3818;DHT22;1924;48.078;11.516;2024-01-15T18:02:32;0.10;99.90
3818;DHT22;1924;48.078;11.516;2024-01-15T18:04:59;0.00;99.90
3818;DHT22;1924;48.078;11.516;2024-01-15T18:07:27;-0.10;99.90
3818;DHT22;1924;48.078;11.516;2024-01-15T18:09:53;-0.20;99.90
3818;DHT22;1924;48.078;11.516;2024-01-15T18:12:20;-0.30;99.90
3818;DHT22;1924;48.078;11.516;2024-01-15T18:14:47;-0.20;99.90
3818;DHT22;1924;48.078;11.516;2024-01-15T18:17:14;-0.20;99.90
3818;DHT22;1924;48.078;11.516;2024-01-15T18:19:41;-0.30;99.90
3818;DHT22;1924;48.078;11.516;2024-01-15T18:22:08;-0.30;99.90
3818;DHT22;1924;48.078;11.516;2024-01-15T18:24:36;-0.30;99.90
3818;DHT22;1924;48.078;11.516;2024-01-15T18:27:03;-0.30;99.90
3818;DHT22;1924;48.078;11.516;2024-01-15T18:29:30;-0.40;99.90
3818;DHT22;1924;48.078;11.516;2024-01-15T18:31:57;-0.40;99.90
3818;DHT22;1924;48.078;11.516;2024-01-15T18:34:23;-0.50;99.90
3818;DHT22;1924;48.078;11.516;2024-01-15T18:36:50;-0.40;99.90
3818;DHT22;1924;48.078;11.516;2024-01-15T18:39:17;-0.40;99.90
3818;DHT22;1924;48.078;11.516;2024-01-15T18:41:46;-0.40;99.90
3818;DHT22;1924;48.078;11.516;2024-01-15T18:44:13;-0.40;99.90
3818;DHT22;1924;48.078;11.516;2024-01-15T18:46:39;-0.40;99.90
3818;DHT22;1924;48.078;11.516;2024-01-15T18:49:09;-0.40;99.90
3818;DHT22;1924;48.078;11.516;2024-01-15T18:51:36;-0.40;99.90
3818;DHT22;1924;48.078;11.516;2024-01-15T18:54:02;-0.50;99.90
3818;DHT22;1924;48.078;11.516;2024-01-15T18:56:30;-0.40;99.90
3818;DHT22;1924;48.078;11.516;2024-01-15T18:58:58;-0.50;99.90
3818;DHT22;1924;48.078;11.516;2024-01-15T19:01:28;-0.50;99.90
3818;DHT22;1924;48.078;11.516;2024-01-15T19:03:56;-0.60;99.90
3818;DHT22;1924;48.078;11.516;2024-01-15T19:06:23;-0.60;99.90
3818;DHT22;1924;48.078;11.516;2024-01-15T19:08:50;-0.70;99.90
3818;DHT22;1924;48.078;11.516;2024-01-15T19:11:17;-0.70;99.90
3818;DHT22;1924;48.078;11.516;2024-01-15T19:13:45;-0.70;99.90
3818;DHT22;1924;48.078;11.516;2024-01-15T19:16:13;-0.70;99.90
3818;DHT22;1924;48.078;11.516;2024-01-15T19:18:41;-0.70;99.90
3818;DHT22;1924;48.078;11.516;2024-01-15T19:21:08;-0.70;99.90
3818;DHT22;1924;48.078;11.516;2024-01-15T19:23:34;-0.70;99.90
3818;DHT22;1924;48.078;11.516;2024-01-15T19:26:01;-0.70;99.90
3818;DHT22;1924;48.078;11.516;2024-01-15T19:28:29;-0.80;99.90
3818;DHT22;1924;48.078;11.516;2024-01-15T19:30:56;-0.70;99.90
3818;DHT22;1924;48.078;11.516;2024-01-15T19:33:24;-0.70;99.90
3818;DHT22;1924;48.078;11.516;2024-01-15T19:35:51;-0.80;99.90
3818;DHT22;1924;48.078;11.516;2024-01-15T19:38:17;-0.90;99.90
3818;DHT22;1924;48.078;11.516;2024-01-15T19:40:44;-0.90;99.90
3818;DHT22;1924;48.078;11.516;2024-01-15T19:43:11;-0.90;99.90
3818;DHT22;1924;48.078;11.516;2024-01-15T19:45:38;-0.90;99.90
3818;DHT22;1924;48.078;11.516;2024-01-15T19:48:05;-0.90;99.90
3818;DHT22;1924;48.078;11.516;2024-01-15T19:50:33;-0.90;99.90
3818;DHT22;1924;48.078;11.516;2024-01-15T19:53:00;-1.00;99.90
3818;DHT22;1924;48.078;11.516;2024-01-15T19:55:26;-0.90;99.90
3818;DHT22;1924;48.078;11.516;2024-01-15T19:57:53;-0.90;99.90
3818;DHT22;1924;48.078;11.516;2024-01-15T20:00:20;-1.00;99.90
3818;DHT22;1924;48.078;11.516;2024-01-15T20:02:46;-1.00;99.90
3818;DHT22;1924;48.078;11.516;2024-01-15T20:05:13;-1.10;99.90
3818;DHT22;1924;48.078;11.516;2024-01-15T20:07:42;-1.10;99.90
3818;DHT22;1924;48.078;11.516;2024-01-15T20:10:09;-1.20;99.90
3818;DHT22;1924;48.078;11.516;2024-01-15T20:12:36;-1.20;99.90
3818;DHT22;1924;48.078;11.516;2024-01-15T20:15:04;-1.20;99.90
3818;DHT22;1924;48.078;11.516;2024-01-15T20:17:30;-1.20;99.90
3818;DHT22;1924;48.078;11.516;2024-01-15T20:19:57;-1.30;99.90
3818;DHT22;1924;48.078;11.516;2024-01-15T20:22:24;-1.30;99.90
3818;DHT22;1924;48.078;11.516;2024-01-15T20:24:52;-1.20;99.90
3818;DHT22;1924;48.078;11.516;2024-01-15T20:27:19;-1.20;99.90
3818;DHT22;1924;48.078;11.516;2024-01-15T20:29:46;-1.30;99.90
3818;DHT22;1924;48.078;11.516;2024-01-15T20:32:12;-1.30;99.90
3818;DHT22;1924;48.078;11.516;2024-01-15T20:34:41;-1.20;99.90
3818;DHT22;1924;48.078;11.516;2024-01-15T20:37:08;-1.20;99.90
3818;DHT22;1924;48.078;11.516;2024-01-15T20:39:35;-1.20;99.90
3818;DHT22;1924;48.078;11.516;2024-01-15T20:42:04;-1.20;99.90
3818;DHT22;1924;48.078;11.516;2024-01-15T20:44:31;-1.20;99.90
3818;DHT22;1924;48.078;11.516;2024-01-15T20:46:57;-1.10;99.90
3818;DHT22;1924;48.078;11.516;2024-01-15T20:49:26;-1.10;99.90
